createdAt,value
2023-05-09T00:00:30.246Z,67.60
2023-05-09T00:01:30.345Z,68.64
2023-05-09T00:02:30.573Z,68.70
2023-05-09T00:03:30.512Z,68.14
2023-05-09T00:04:30.610Z,67.71
2023-05-09T00:05:30.661Z,68.03
2023-05-09T00:06:30.738Z,68.14
2023-05-09T00:07:30.828Z,68.59
2023-05-09T00:08:30.930Z,69.32
2023-05-09T00:09:31.004Z,71.25
2023-05-09T00:10:31.065Z,70.59
2023-05-09T00:11:31.155Z,70.48
2023-05-09T00:12:31.268Z,70.24
2023-05-09T00:13:31.323Z,70.77
2023-05-09T00:14:31.420Z,69.26
2023-05-09T00:15:31.546Z,68.25
2023-05-09T00:16:31.606Z,67.71
2023-05-09T00:17:31.714Z,68.87
2023-05-09T00:18:31.728Z,67.27
2023-05-09T00:19:31.816Z,66.27
2023-05-09T00:20:31.908Z,66.95
2023-05-09T00:21:31.997Z,67.76
2023-05-09T00:22:32.085Z,67.98
2023-05-09T00:23:32.174Z,68.87
2023-05-09T00:24:32.258Z,69.09
2023-05-09T00:25:32.344Z,68.87
2023-05-09T00:26:32.438Z,69.60
2023-05-09T00:27:32.518Z,71.43
2023-05-09T00:28:32.612Z,70.65
2023-05-09T00:29:32.699Z,71.31
2023-05-09T00:30:32.770Z,70.36
2023-05-09T00:31:32.866Z,69.95
2023-05-09T00:32:32.947Z,69.66
2023-05-09T00:33:33.010Z,70.12
2023-05-09T00:34:33.086Z,71.07
2023-05-09T00:35:33.179Z,71.67
2023-05-09T00:36:33.270Z,73.04
2023-05-09T00:37:33.348Z,74.65
2023-05-09T00:38:33.428Z,75.73
2023-05-09T00:39:33.509Z,76.97
2023-05-09T00:40:33.595Z,77.54
2023-05-09T00:41:33.681Z,76.62
2023-05-09T00:42:33.786Z,75.59
2023-05-09T00:43:33.821Z,75.19
2023-05-09T00:44:33.911Z,76.34
2023-05-09T00:45:33.995Z,76.27
2023-05-09T00:46:34.138Z,75.73
2023-05-09T00:47:34.195Z,74.79
2023-05-09T00:48:34.278Z,75.79
2023-05-09T00:49:34.370Z,75.19
2023-05-09T00:50:34.419Z,74.72
2023-05-09T00:51:34.482Z,74.00
2023-05-09T00:52:34.619Z,74.92
2023-05-09T00:53:34.660Z,74.33
2023-05-09T00:54:34.737Z,74.92
2023-05-09T00:55:34.841Z,73.74
2023-05-09T00:56:34.914Z,74.00
2023-05-09T00:57:35.011Z,73.48
2023-05-09T00:58:35.089Z,73.17
2023-05-09T00:59:35.193Z,72.98
2023-05-09T01:00:35.282Z,72.66
2023-05-09T01:01:35.431Z,73.10
2023-05-09T01:02:35.503Z,72.60
2023-05-09T01:03:35.723Z,72.04
2023-05-09T01:04:35.641Z,71.01
2023-05-09T01:05:35.728Z,71.01
2023-05-09T01:06:35.830Z,71.74
2023-05-09T01:07:35.925Z,72.66
2023-05-09T01:08:35.975Z,72.72
2023-05-09T01:09:36.069Z,72.91
2023-05-09T01:10:36.153Z,72.41
2023-05-09T01:11:36.285Z,71.92
2023-05-09T01:12:36.342Z,71.49
2023-05-09T01:13:36.404Z,71.25
2023-05-09T01:14:36.465Z,71.19
2023-05-09T01:15:36.635Z,70.30
2023-05-09T01:16:36.630Z,68.09
2023-05-09T01:17:36.713Z,66.64
2023-05-09T01:18:36.805Z,66.43
2023-05-09T01:19:36.858Z,65.91
2023-05-09T01:20:36.946Z,65.75
2023-05-09T01:21:37.042Z,64.94
2023-05-09T01:22:37.144Z,63.91
2023-05-09T01:23:37.202Z,64.11
2023-05-09T01:24:37.284Z,62.86
2023-05-09T01:25:37.324Z,62.21
2023-05-09T01:26:37.409Z,61.13
2023-05-09T01:27:37.505Z,60.26
2023-05-09T01:28:37.595Z,59.45
2023-05-09T01:29:37.687Z,58.83
2023-05-09T01:30:37.765Z,58.75
2023-05-09T01:31:37.887Z,58.87
2023-05-09T01:32:37.982Z,58.50
2023-05-09T01:33:37.999Z,58.87
2023-05-09T01:34:38.044Z,59.49
2023-05-09T01:35:38.123Z,60.35
2023-05-09T01:36:38.243Z,60.65
2023-05-09T01:37:38.299Z,60.43
2023-05-09T01:38:38.393Z,60.26
2023-05-09T01:39:38.495Z,61.04
2023-05-09T01:40:38.589Z,61.99
2023-05-09T01:41:38.643Z,63.29
2023-05-09T01:42:38.736Z,64.60
2023-05-09T01:43:38.871Z,64.74
2023-05-09T01:44:38.901Z,64.79
2023-05-09T01:45:39.006Z,65.45
2023-05-09T01:46:39.123Z,65.29
2023-05-09T01:47:39.187Z,65.60
2023-05-09T01:48:39.279Z,65.65
2023-05-09T01:49:39.304Z,65.86
2023-05-09T01:50:39.373Z,66.64
2023-05-09T01:51:40.790Z,67.92
2023-05-09T01:52:39.517Z,68.59
2023-05-09T01:53:39.601Z,67.60
2023-05-09T01:54:39.693Z,67.33
2023-05-09T01:55:39.759Z,67.98
2023-05-09T01:56:39.849Z,68.81
2023-05-09T01:57:39.937Z,69.15
2023-05-09T01:58:40.031Z,69.66
2023-05-09T01:59:40.108Z,71.25
2023-05-09T02:00:40.218Z,72.79
2023-05-09T02:01:40.256Z,73.48
2023-05-09T02:02:40.421Z,74.46
2023-05-09T02:03:40.430Z,75.93
2023-05-09T02:04:40.522Z,77.11
2023-05-09T02:05:40.567Z,78.55
2023-05-09T02:06:40.663Z,79.58
2023-05-09T02:07:40.742Z,80.96
2023-05-09T02:08:40.813Z,81.58
2023-05-09T02:09:40.926Z,81.43
2023-05-09T02:10:40.966Z,80.04
2023-05-09T02:11:41.066Z,81.82
2023-05-09T02:12:41.151Z,81.50
2023-05-09T02:13:41.222Z,81.35
2023-05-09T02:14:41.320Z,81.90
2023-05-09T02:15:41.380Z,82.79
2023-05-09T02:16:41.453Z,84.19
2023-05-09T02:17:41.548Z,84.95
2023-05-09T02:18:41.632Z,86.70
2023-05-09T02:19:41.701Z,86.88
2023-05-09T02:20:41.784Z,87.33
2023-05-09T02:21:41.877Z,86.43
2023-05-09T02:22:41.935Z,88.06
2023-05-09T02:23:42.041Z,88.06
2023-05-09T02:24:42.121Z,89.17
2023-05-09T02:25:42.203Z,90.32
2023-05-09T02:26:42.282Z,90.03
2023-05-09T02:27:42.382Z,88.98
2023-05-09T02:28:42.438Z,90.71
2023-05-09T02:29:42.523Z,91.79
2023-05-09T02:30:42.606Z,92.70
2023-05-09T02:31:42.724Z,93.31
2023-05-09T02:32:42.822Z,94.01
2023-05-09T02:33:42.879Z,95.21
2023-05-09T02:34:42.983Z,95.18
2023-05-09T02:35:43.086Z,94.12
2023-05-09T02:36:43.154Z,94.33
2023-05-09T02:37:44.080Z,93.91
2023-05-09T02:38:43.279Z,93.73
2023-05-09T02:39:43.376Z,93.54
2023-05-09T02:40:43.472Z,93.94
2023-05-09T02:41:43.553Z,95.21
2023-05-09T02:42:43.656Z,95.12
2023-05-09T02:43:43.732Z,94.54
2023-05-09T02:44:43.822Z,95.50
2023-05-09T02:45:43.950Z,94.12
2023-05-09T02:46:44.001Z,94.91
2023-05-09T02:47:44.113Z,96.65
2023-05-09T02:48:44.156Z,94.22
2023-05-09T02:49:44.251Z,94.38
2023-05-09T02:50:44.364Z,94.38
2023-05-09T02:51:44.423Z,96.10
2023-05-09T02:52:44.526Z,97.32
2023-05-09T02:53:44.583Z,97.37
2023-05-09T02:54:44.789Z,98.05
2023-05-09T02:55:44.735Z,99.44
2023-05-09T02:56:44.850Z,97.88
2023-05-09T02:57:44.900Z,98.63
2023-05-09T02:58:44.956Z,97.04
2023-05-09T02:59:45.047Z,98.17
2023-05-09T03:00:45.099Z,98.80
2023-05-09T03:01:45.264Z,97.15
2023-05-09T03:02:45.328Z,97.21
2023-05-09T03:03:45.431Z,95.29
2023-05-09T03:04:45.454Z,95.18
2023-05-09T03:05:45.533Z,96.70
2023-05-09T03:06:45.643Z,94.22
2023-05-09T03:07:45.710Z,93.00
2023-05-09T03:08:45.789Z,95.00
2023-05-09T03:09:45.869Z,94.59
2023-05-09T03:10:45.964Z,94.96
2023-05-09T03:11:46.982Z,94.78
2023-05-09T03:12:46.136Z,93.52
2023-05-09T03:13:46.222Z,93.83
2023-05-09T03:14:46.317Z,92.50
2023-05-09T03:15:46.409Z,93.11
2023-05-09T03:16:46.481Z,93.73
2023-05-09T03:17:46.616Z,93.42
2023-05-09T03:18:46.637Z,93.54
2023-05-09T03:19:46.739Z,92.90
2023-05-09T03:20:46.822Z,94.46
2023-05-09T03:21:46.902Z,94.15
2023-05-09T03:22:47.010Z,93.59
2023-05-09T03:23:47.055Z,94.04
2023-05-09T03:24:47.119Z,92.50
2023-05-09T03:25:47.196Z,93.52
2023-05-09T03:26:47.277Z,95.10
2023-05-09T03:27:47.347Z,95.10
2023-05-09T03:28:47.430Z,93.00
2023-05-09T03:29:47.509Z,94.57
2023-05-09T03:30:47.570Z,94.06
2023-05-09T03:31:47.726Z,95.61
2023-05-09T03:32:47.764Z,96.37
2023-05-09T03:33:47.865Z,95.88
2023-05-09T03:34:47.862Z,95.02
2023-05-09T03:35:47.960Z,95.45
2023-05-09T03:36:48.031Z,95.10
2023-05-09T03:37:48.119Z,94.46
2023-05-09T03:38:48.240Z,94.46
2023-05-09T03:39:48.293Z,93.94
2023-05-09T03:40:48.348Z,92.80
2023-05-09T03:41:48.422Z,91.00
2023-05-09T03:42:48.540Z,90.12
2023-05-09T03:43:48.619Z,88.06
2023-05-09T03:44:48.718Z,89.84
2023-05-09T03:45:48.802Z,89.84
2023-05-09T03:46:48.885Z,88.61
2023-05-09T03:47:48.981Z,88.06
2023-05-09T03:48:49.028Z,88.24
2023-05-09T03:49:49.115Z,89.74
2023-05-09T03:50:49.197Z,91.99
2023-05-09T03:51:49.286Z,91.69
2023-05-09T03:52:49.345Z,92.29
2023-05-09T03:53:49.435Z,91.99
2023-05-09T03:54:49.526Z,93.31
2023-05-09T03:55:49.636Z,93.73
2023-05-09T03:56:49.694Z,93.31
2023-05-09T03:57:49.793Z,92.70
2023-05-09T03:58:49.876Z,94.78
2023-05-09T03:59:49.979Z,92.80
2023-05-09T04:00:50.032Z,92.70
2023-05-09T04:01:50.117Z,91.89
2023-05-09T04:02:50.350Z,91.10
2023-05-09T04:03:50.281Z,91.99
2023-05-09T04:04:50.368Z,93.31
2023-05-09T04:05:50.474Z,93.31
2023-05-09T04:06:50.517Z,90.80
2023-05-09T04:07:50.593Z,91.79
2023-05-09T04:08:50.698Z,91.89
2023-05-09T04:09:50.768Z,91.89
2023-05-09T04:10:50.858Z,93.62
2023-05-09T04:11:50.945Z,93.00
2023-05-09T04:12:51.083Z,94.15
2023-05-09T04:13:51.138Z,93.73
2023-05-09T04:14:51.193Z,91.99
2023-05-09T04:15:51.299Z,93.00
2023-05-09T04:16:51.391Z,90.32
2023-05-09T04:17:51.488Z,88.52
2023-05-09T04:18:51.547Z,86.43
2023-05-09T04:19:51.632Z,85.21
2023-05-09T04:20:51.738Z,86.88
2023-05-09T04:21:51.793Z,85.30
2023-05-09T04:22:51.865Z,84.53
2023-05-09T04:23:51.949Z,83.77
2023-05-09T04:24:52.026Z,85.82
2023-05-09T04:25:52.109Z,88.24
2023-05-09T04:26:52.214Z,88.33
2023-05-09T04:27:52.358Z,86.52
2023-05-09T04:28:52.365Z,87.15
2023-05-09T04:29:52.450Z,89.08
2023-05-09T04:30:52.692Z,91.49
2023-05-09T04:31:52.837Z,91.89
2023-05-09T04:32:52.720Z,89.84
2023-05-09T04:33:52.785Z,94.36
2023-05-09T04:34:52.865Z,92.60
2023-05-09T04:35:52.949Z,94.46
2023-05-09T04:36:53.050Z,94.68
2023-05-09T04:37:53.134Z,94.89
2023-05-09T04:38:53.227Z,95.18
2023-05-09T04:39:53.308Z,92.29
2023-05-09T04:40:53.388Z,93.42
2023-05-09T04:41:53.496Z,94.57
2023-05-09T04:42:53.583Z,97.60
2023-05-09T04:43:53.658Z,99.97
2023-05-09T04:44:53.745Z,98.11
2023-05-09T04:45:53.844Z,96.37
2023-05-09T04:46:53.907Z,95.50
2023-05-09T04:47:54.048Z,97.04
2023-05-09T04:48:54.108Z,100.39
2023-05-09T04:49:54.176Z,102.03
2023-05-09T04:50:54.269Z,105.14
2023-05-09T04:51:54.324Z,101.66
2023-05-09T04:52:54.411Z,96.65
2023-05-09T04:53:54.494Z,94.46
2023-05-09T04:54:54.555Z,93.31
2023-05-09T04:55:54.634Z,94.89
2023-05-09T04:57:03.145Z,93.94
2023-05-09T04:59:09.559Z,69.04
2023-05-09T05:00:10.647Z,89.08
2023-05-09T05:01:11.766Z,100.03
2023-05-09T05:02:11.831Z,104.42
2023-05-09T05:03:10.941Z,109.86
2023-05-09T05:04:11.055Z,109.79
2023-05-09T05:05:12.608Z,108.66
2023-05-09T05:06:11.115Z,110.22
2023-05-09T05:07:11.211Z,106.67
2023-05-09T05:08:11.268Z,108.94
2023-05-09T05:09:11.371Z,109.08
2023-05-09T05:10:11.424Z,106.13
2023-05-09T05:11:11.515Z,106.40
2023-05-09T05:12:11.598Z,112.57
2023-05-09T05:13:11.737Z,112.13
2023-05-09T05:14:11.760Z,115.35
2023-05-09T05:15:12.021Z,117.84
2023-05-09T05:16:11.959Z,117.84
2023-05-09T05:17:12.041Z,118.67
2023-05-09T05:18:12.128Z,113.87
2023-05-09T05:19:12.193Z,116.86
2023-05-09T05:20:12.277Z,118.01
2023-05-09T05:21:12.363Z,115.50
2023-05-09T05:22:12.447Z,118.75
2023-05-09T05:23:12.549Z,113.25
2023-05-09T05:24:12.633Z,107.21
2023-05-09T05:25:12.864Z,101.60
2023-05-09T05:26:12.777Z,101.11
2023-05-09T05:27:12.872Z,102.58
2023-05-09T05:28:12.976Z,103.08
2023-05-09T05:29:13.024Z,104.49
2023-05-09T05:30:13.106Z,102.27
2023-05-09T05:31:13.214Z,104.94
2023-05-09T05:32:13.244Z,106.00
2023-05-09T05:33:13.365Z,109.72
2023-05-09T05:34:13.404Z,116.30
2023-05-09T05:35:13.792Z,113.56
2023-05-09T05:36:13.548Z,114.10
2023-05-09T05:37:13.631Z,113.41
2023-05-09T05:38:13.713Z,117.92
2023-05-09T05:39:13.806Z,119.26
2023-05-09T05:40:13.894Z,126.97
2023-05-09T05:41:13.995Z,128.91
2023-05-09T05:42:14.078Z,133.08
2023-05-09T05:43:14.166Z,136.53
2023-05-09T05:44:14.244Z,139.58
2023-05-09T05:45:14.503Z,141.93
2023-05-09T05:46:14.515Z,138.09
2023-05-09T05:47:14.515Z,140.86
2023-05-09T05:48:14.608Z,144.85
2023-05-09T05:49:14.689Z,146.10
2023-05-09T05:50:14.769Z,147.77
2023-05-09T05:51:14.868Z,148.16
2023-05-09T05:52:14.929Z,150.54
2023-05-09T05:53:15.015Z,154.82
2023-05-09T05:54:15.083Z,153.97
2023-05-09T05:55:15.374Z,155.24
2023-05-09T05:56:15.253Z,155.24
2023-05-09T05:57:15.326Z,156.68
2023-05-09T05:58:15.408Z,161.64
2023-05-09T05:59:15.520Z,160.26
2023-05-09T06:00:15.600Z,164.47
2023-05-09T06:01:16.029Z,169.77
2023-05-09T06:02:15.867Z,168.75
2023-05-09T06:03:16.135Z,169.09
2023-05-09T06:04:16.141Z,158.90
2023-05-09T06:05:16.486Z,155.67
2023-05-09T06:06:16.113Z,149.60
2023-05-09T06:07:16.217Z,148.55
2023-05-09T06:08:16.307Z,150.40
2023-05-09T06:09:16.367Z,152.99
2023-05-09T06:10:16.463Z,156.25
2023-05-09T06:11:16.536Z,150.67
2023-05-09T06:12:16.630Z,148.16
2023-05-09T06:13:16.796Z,149.47
2023-05-09T06:14:16.815Z,144.97
2023-05-09T06:15:17.082Z,143.49
2023-05-09T06:16:19.845Z,149.20
2023-05-09T06:17:17.842Z,143.98
2023-05-09T06:18:17.136Z,135.98
2023-05-09T06:19:17.234Z,135.00
2023-05-09T06:20:17.346Z,125.65
2023-05-09T06:21:17.418Z,125.56
2023-05-09T06:22:17.554Z,126.97
2023-05-09T06:23:17.575Z,129.71
2023-05-09T06:24:27.957Z,121.14
2023-05-09T06:25:17.719Z,121.75
2023-05-09T06:26:17.816Z,124.17
2023-05-09T06:27:17.920Z,122.28
2023-05-09T06:28:17.957Z,125.93
2023-05-09T06:29:18.043Z,130.11
2023-05-09T06:30:26.402Z,132.56
2023-05-09T06:31:18.256Z,136.42
2023-05-09T06:32:18.282Z,138.09
2023-05-09T06:33:18.354Z,130.41
2023-05-09T06:34:18.457Z,128.91
2023-05-09T06:35:18.544Z,128.03
2023-05-09T06:36:18.620Z,129.61
2023-05-09T06:37:18.700Z,123.26
2023-05-09T06:38:18.788Z,116.46
2023-05-09T06:39:18.869Z,123.81
2023-05-09T06:40:18.919Z,128.91
2023-05-09T06:41:19.018Z,130.21
2023-05-09T06:42:19.186Z,128.82
2023-05-09T06:43:19.196Z,126.50
2023-05-09T06:44:19.275Z,123.81
2023-05-09T06:45:19.530Z,117.84
2023-05-09T06:46:19.492Z,119.26
2023-05-09T06:47:19.492Z,115.66
2023-05-09T06:48:19.585Z,118.25
2023-05-09T06:49:19.671Z,122.91
2023-05-09T06:50:19.728Z,125.46
2023-05-09T06:51:19.839Z,129.21
2023-05-09T06:52:19.916Z,130.91
2023-05-09T06:53:19.999Z,131.22
2023-05-09T06:54:20.098Z,125.09
2023-05-09T06:55:20.147Z,120.62
2023-05-09T06:56:20.321Z,120.45
2023-05-09T06:57:20.317Z,124.82
2023-05-09T06:58:20.412Z,121.93
2023-05-09T06:59:20.461Z,121.58
2023-05-09T07:00:20.553Z,120.45
2023-05-09T07:01:20.640Z,119.43
2023-05-09T07:02:20.758Z,119.17
2023-05-09T07:03:20.756Z,117.35
2023-05-09T07:04:20.836Z,110.73
2023-05-09T07:05:20.980Z,114.72
2023-05-09T07:06:21.010Z,117.51
2023-05-09T07:07:21.078Z,119.09
2023-05-09T07:08:21.132Z,116.30
2023-05-09T07:09:21.253Z,113.18
2023-05-09T07:10:21.303Z,111.39
2023-05-09T07:11:21.400Z,111.61
2023-05-09T07:12:21.494Z,114.33
2023-05-09T07:13:21.615Z,114.64
2023-05-09T07:14:21.653Z,112.65
2023-05-09T07:15:32.987Z,105.73
2023-05-09T07:16:21.883Z,101.17
2023-05-09T07:17:24.041Z,102.58
2023-05-09T07:18:22.017Z,99.68
2023-05-09T07:19:22.081Z,100.99
2023-05-09T07:20:22.149Z,103.34
2023-05-09T07:21:22.202Z,107.76
2023-05-09T07:22:22.310Z,106.53
2023-05-09T07:23:22.376Z,104.68
2023-05-09T07:24:22.475Z,99.68
2023-05-09T07:25:22.578Z,96.37
2023-05-09T07:26:22.650Z,97.09
2023-05-09T07:27:22.697Z,99.38
2023-05-09T07:28:22.795Z,102.40
2023-05-09T07:29:22.906Z,102.58
2023-05-09T07:30:23.009Z,100.27
2023-05-09T07:31:23.094Z,100.45
2023-05-09T07:32:23.149Z,97.88
2023-05-09T07:33:23.230Z,96.82
2023-05-09T07:34:23.323Z,95.07
2023-05-09T07:35:23.485Z,90.71
2023-05-09T07:36:23.501Z,91.99
2023-05-09T07:37:23.568Z,93.11
2023-05-09T07:38:23.665Z,88.89
2023-05-09T07:39:23.735Z,86.70
2023-05-09T07:40:23.801Z,87.78
2023-05-09T07:41:23.902Z,90.80
2023-05-09T07:42:23.966Z,86.52
2023-05-09T07:43:24.054Z,85.21
2023-05-09T07:44:24.136Z,88.80
2023-05-09T07:45:24.275Z,91.29
2023-05-09T07:46:24.337Z,92.09
2023-05-09T07:47:24.445Z,90.71
2023-05-09T07:48:24.481Z,88.33
2023-05-09T07:49:24.578Z,82.38
2023-05-09T07:50:24.754Z,79.96
2023-05-09T07:51:24.756Z,79.96
2023-05-09T07:52:24.813Z,78.99
2023-05-09T07:53:24.951Z,76.83
2023-05-09T07:54:25.002Z,74.72
2023-05-09T07:55:25.105Z,74.65
2023-05-09T07:56:25.212Z,77.89
2023-05-09T07:57:25.241Z,79.73
2023-05-09T07:58:25.345Z,76.27
2023-05-09T07:59:25.451Z,75.52
2023-05-09T08:00:25.497Z,76.69
2023-05-09T08:01:25.532Z,75.39
2023-05-09T08:02:25.707Z,75.73
2023-05-09T08:03:25.797Z,75.73
2023-05-09T08:04:25.831Z,75.19
2023-05-09T08:05:25.869Z,72.85
2023-05-09T08:06:25.914Z,73.93
2023-05-09T08:07:26.026Z,75.66
2023-05-09T08:08:26.116Z,74.85
2023-05-09T08:09:26.208Z,74.46
2023-05-09T08:10:26.296Z,71.01
2023-05-09T08:11:26.427Z,69.60
2023-05-09T08:12:26.489Z,68.25
2023-05-09T08:13:26.691Z,68.98
2023-05-09T08:14:26.655Z,69.43
2023-05-09T08:15:26.715Z,67.06
2023-05-09T08:16:26.855Z,66.48
2023-05-09T08:17:26.877Z,63.91
2023-05-09T08:18:26.944Z,62.91
2023-05-09T08:19:27.062Z,64.55
2023-05-09T08:20:27.153Z,65.40
2023-05-09T08:21:27.202Z,67.71
2023-05-09T08:22:27.311Z,63.05
2023-05-09T08:23:27.382Z,61.80
2023-05-09T08:24:27.451Z,56.77
2023-05-09T08:25:27.537Z,54.50
2023-05-09T08:26:27.652Z,54.50
2023-05-09T08:27:27.705Z,52.27
2023-05-09T08:28:27.811Z,49.39
2023-05-09T08:29:27.950Z,53.06
2023-05-09T08:30:27.944Z,52.04
2023-05-09T08:31:28.079Z,51.98
2023-05-09T08:32:28.102Z,50.25
2023-05-09T08:33:28.184Z,53.36
2023-05-09T08:34:28.232Z,53.97
2023-05-09T08:35:28.348Z,53.87
2023-05-09T08:36:28.449Z,53.40
2023-05-09T08:37:28.512Z,55.94
2023-05-09T08:38:28.639Z,55.10
2023-05-09T08:39:28.705Z,53.67
2023-05-09T08:40:28.753Z,53.26
2023-05-09T08:41:28.863Z,55.50
2023-05-09T08:42:28.915Z,57.82
2023-05-09T08:43:29.006Z,57.82
2023-05-09T08:44:29.070Z,60.26
2023-05-09T08:45:29.147Z,62.35
2023-05-09T08:46:29.230Z,58.42
2023-05-09T08:47:29.299Z,58.02
2023-05-09T08:48:29.391Z,56.81
2023-05-09T08:49:29.475Z,51.72
2023-05-09T08:50:29.525Z,51.85
2023-05-09T08:51:29.620Z,52.27
2023-05-09T08:52:29.676Z,50.85
2023-05-09T08:53:29.779Z,48.29
2023-05-09T08:54:29.843Z,50.91
2023-05-09T08:55:29.918Z,47.96
2023-05-09T08:56:30.011Z,49.65
2023-05-09T08:57:30.111Z,51.19
2023-05-09T08:58:30.277Z,54.43
2023-05-09T08:59:30.294Z,54.67
2023-05-09T09:00:30.365Z,54.64
2023-05-09T09:01:30.437Z,56.96
2023-05-09T09:02:30.530Z,57.00
2023-05-09T09:03:30.583Z,58.58
2023-05-09T09:04:30.701Z,57.70
2023-05-09T09:06:30.819Z,61.22
2023-05-09T09:07:31.354Z,60.13
2023-05-09T09:08:30.973Z,61.18
2023-05-09T09:09:31.072Z,63.24
2023-05-09T09:10:31.129Z,59.12
2023-05-09T09:11:31.194Z,60.13
2023-05-09T09:12:31.249Z,60.13
2023-05-09T09:15:23.962Z,32.81
2023-05-09T09:16:25.077Z,45.75
2023-05-09T09:17:26.639Z,52.66
2023-05-09T09:18:25.180Z,59.28
2023-05-09T09:19:25.229Z,63.86
2023-05-09T09:20:25.337Z,66.11
2023-05-09T09:21:25.412Z,69.43
2023-05-09T09:22:25.457Z,69.26
2023-05-09T09:23:25.559Z,69.89
2023-05-09T09:24:25.645Z,67.38
2023-05-09T09:25:25.772Z,66.53
2023-05-09T09:26:25.789Z,68.75
2023-05-09T09:27:25.885Z,66.22
2023-05-09T09:28:25.984Z,67.43
2023-05-09T09:29:26.156Z,67.38
2023-05-09T09:30:26.177Z,66.01
2023-05-09T09:31:26.437Z,62.91
2023-05-09T09:32:26.351Z,64.40
2023-05-09T09:33:26.416Z,68.31
2023-05-09T09:34:26.502Z,70.59
2023-05-09T09:35:26.648Z,67.06
2023-05-09T09:36:26.666Z,69.83
2023-05-09T09:37:26.800Z,70.24
2023-05-09T09:38:26.915Z,73.17
2023-05-09T09:39:26.952Z,72.98
2023-05-09T09:40:27.366Z,75.59
2023-05-09T09:41:27.147Z,78.40
2023-05-09T09:42:27.270Z,80.73
2023-05-09T09:43:27.350Z,83.86
2023-05-09T09:44:27.371Z,79.21
2023-05-09T09:45:27.476Z,78.18
2023-05-09T09:46:27.555Z,76.14
2023-05-09T09:47:27.658Z,74.46
2023-05-09T09:48:27.728Z,74.07
2023-05-09T09:49:27.793Z,75.19
2023-05-09T09:50:27.854Z,70.89
2023-05-09T09:51:27.952Z,67.60
2023-05-09T09:52:28.003Z,67.65
2023-05-09T09:53:28.110Z,67.87
2023-05-09T09:54:28.187Z,67.33
2023-05-09T09:55:28.254Z,70.48
2023-05-09T09:56:28.326Z,72.23
2023-05-09T09:57:28.384Z,71.61
2023-05-09T09:58:28.444Z,70.12
2023-05-09T09:59:28.544Z,67.06
2023-05-09T10:00:28.642Z,64.25
2023-05-09T10:01:28.817Z,64.74
2023-05-09T10:02:28.806Z,65.80
2023-05-09T10:03:28.935Z,65.29
2023-05-09T10:04:29.491Z,64.60
2023-05-09T10:05:29.058Z,65.55
2023-05-09T10:06:29.168Z,66.90
2023-05-09T10:07:29.234Z,69.66
2023-05-09T10:08:29.307Z,71.25
2023-05-09T10:09:29.412Z,71.55
2023-05-09T10:10:29.469Z,74.00
2023-05-09T10:11:29.572Z,75.25
2023-05-09T10:12:29.852Z,76.62
2023-05-09T10:13:29.755Z,70.83
2023-05-09T10:14:29.791Z,66.22
2023-05-09T10:15:35.687Z,69.09
2023-05-09T10:16:40.114Z,73.29
2023-05-09T10:17:30.165Z,73.74
2023-05-09T10:18:30.212Z,76.62
2023-05-09T10:19:30.154Z,78.33
2023-05-09T10:20:30.215Z,76.76
2023-05-09T10:21:30.269Z,73.42
2023-05-09T10:22:30.377Z,73.68
2023-05-09T10:23:30.455Z,74.26
2023-05-09T10:24:30.518Z,74.85
2023-05-09T10:25:30.563Z,75.59
2023-05-09T10:26:30.645Z,71.92
2023-05-09T10:27:30.698Z,73.42
2023-05-09T10:28:30.749Z,74.46
2023-05-09T10:29:30.859Z,75.79
2023-05-09T10:30:31.445Z,76.14
2023-05-09T10:31:31.018Z,77.89
2023-05-09T10:32:31.112Z,75.52
2023-05-09T10:33:31.152Z,78.77
2023-05-09T10:34:31.218Z,82.06
2023-05-09T10:35:31.336Z,80.65
2023-05-09T10:36:52.377Z,79.51
2023-05-09T10:37:32.864Z,82.22
2023-05-09T10:38:31.573Z,84.44
2023-05-09T10:39:31.666Z,84.27
2023-05-09T10:40:31.759Z,84.19
2023-05-09T10:41:31.915Z,83.61
2023-05-09T10:42:31.944Z,83.94
2023-05-09T10:43:32.246Z,78.99
2023-05-09T10:44:32.085Z,74.46
2023-05-09T10:45:32.150Z,72.29
2023-05-09T10:46:32.296Z,74.39
2023-05-09T10:47:32.402Z,77.32
2023-05-09T10:48:32.433Z,79.81
2023-05-09T10:49:34.282Z,80.80
2023-05-09T10:50:32.560Z,80.19
2023-05-09T10:51:32.627Z,79.28
2023-05-09T10:52:32.732Z,78.77
2023-05-09T10:53:32.782Z,74.00
2023-05-09T10:54:32.882Z,71.80
2023-05-09T10:55:32.976Z,68.42
2023-05-09T10:56:33.100Z,66.58
2023-05-09T10:57:33.161Z,68.47
2023-05-09T10:58:33.272Z,72.54
2023-05-09T10:59:33.329Z,73.23
2023-05-09T11:00:33.425Z,71.67
2023-05-09T11:01:33.566Z,71.49
2023-05-09T11:02:33.611Z,69.15
2023-05-09T11:03:33.742Z,70.54
2023-05-09T11:04:33.795Z,66.32
2023-05-09T11:05:33.860Z,63.81
2023-05-09T11:06:33.944Z,61.85
2023-05-09T11:07:34.070Z,58.95
2023-05-09T11:08:34.129Z,61.99
2023-05-09T11:09:34.240Z,66.74
2023-05-09T11:10:34.310Z,62.86
2023-05-09T11:11:34.361Z,63.76
2023-05-09T11:12:34.457Z,63.24
2023-05-09T11:13:34.632Z,61.85
2023-05-09T11:14:34.690Z,63.24
2023-05-09T11:15:34.722Z,63.15
2023-05-09T11:16:34.907Z,63.67
2023-05-09T11:17:34.927Z,59.04
2023-05-09T11:18:35.010Z,59.75
2023-05-09T11:19:35.130Z,60.78
2023-05-09T11:20:35.156Z,62.08
2023-05-09T11:21:35.248Z,61.40
2023-05-09T11:22:36.258Z,63.72
2023-05-09T11:23:35.441Z,62.31
2023-05-09T11:24:35.542Z,59.08
2023-05-09T11:25:35.652Z,58.95
2023-05-09T11:26:35.743Z,57.86
2023-05-09T11:27:35.917Z,55.17
2023-05-09T11:28:35.860Z,55.76
2023-05-09T11:29:35.940Z,57.16
2023-05-09T11:30:36.055Z,56.21
2023-05-09T11:31:36.163Z,57.19
2023-05-09T11:32:36.205Z,56.39
2023-05-09T11:33:36.240Z,59.20
2023-05-09T11:34:36.363Z,57.47
2023-05-09T11:35:36.422Z,58.91
2023-05-09T11:36:36.521Z,61.13
2023-05-09T11:37:36.664Z,62.63
2023-05-09T11:38:36.710Z,63.72
2023-05-09T11:39:36.781Z,61.89
2023-05-09T11:40:36.920Z,61.31
2023-05-09T11:41:36.945Z,58.67
2023-05-09T11:42:37.029Z,58.34
2023-05-09T11:43:37.135Z,60.47
2023-05-09T11:44:37.227Z,56.89
2023-05-09T11:45:37.390Z,53.63
2023-05-09T11:46:37.430Z,54.96
2023-05-09T11:47:37.533Z,54.96
2023-05-09T11:48:37.566Z,56.70
2023-05-09T11:49:37.681Z,58.99
2023-05-09T11:50:37.754Z,57.98
2023-05-09T11:51:37.810Z,55.94
2023-05-09T11:52:37.901Z,57.23
2023-05-09T11:53:37.964Z,54.85
2023-05-09T11:54:38.101Z,55.25
2023-05-09T11:55:38.140Z,57.23
2023-05-09T11:56:38.204Z,58.54
2023-05-09T11:57:38.289Z,58.06
2023-05-09T11:58:38.382Z,55.72
2023-05-09T11:59:38.477Z,54.89
2023-05-09T12:00:38.571Z,55.32
2023-05-09T12:01:38.627Z,58.14
2023-05-09T12:02:38.818Z,59.75
2023-05-09T12:03:38.945Z,61.18
2023-05-09T12:04:38.946Z,60.69
2023-05-09T12:05:39.003Z,61.40
2023-05-09T12:06:39.077Z,60.13
2023-05-09T12:07:39.135Z,59.49
2023-05-09T12:08:39.233Z,60.26
2023-05-09T12:09:39.345Z,62.17
2023-05-09T12:10:39.420Z,62.68
2023-05-09T12:11:39.502Z,61.53
2023-05-09T12:12:39.602Z,62.49
2023-05-09T12:13:39.653Z,64.64
2023-05-09T12:14:39.759Z,64.55
2023-05-09T12:15:39.902Z,63.24
2023-05-09T12:16:40.017Z,62.72
2023-05-09T12:17:40.029Z,62.72
2023-05-09T12:18:40.052Z,64.30
2023-05-09T12:19:40.145Z,64.45
2023-05-09T12:20:40.226Z,64.64
2023-05-09T12:21:40.306Z,67.11
2023-05-09T12:22:40.404Z,66.58
2023-05-09T12:23:40.485Z,65.60
2023-05-09T12:24:40.572Z,65.14
2023-05-09T12:25:40.624Z,64.55
2023-05-09T12:26:40.728Z,62.63
2023-05-09T12:27:40.911Z,63.48
2023-05-09T12:28:40.893Z,66.22
2023-05-09T12:29:40.995Z,65.29
2023-05-09T12:30:41.089Z,66.79
2023-05-09T12:31:41.208Z,65.96
2023-05-09T12:32:41.342Z,66.85
2023-05-09T12:33:41.348Z,67.43
2023-05-09T12:34:41.390Z,69.04
2023-05-09T12:35:41.471Z,72.10
2023-05-09T12:36:41.534Z,72.29
2023-05-09T12:37:41.599Z,73.93
2023-05-09T12:38:41.716Z,71.43
2023-05-09T12:39:41.915Z,73.74
2023-05-09T12:40:41.833Z,73.87
2023-05-09T12:41:53.620Z,74.72
2023-05-09T12:42:41.978Z,75.19
2023-05-09T12:43:42.073Z,74.07
2023-05-09T12:44:42.311Z,72.91
2023-05-09T12:45:42.250Z,74.65
2023-05-09T12:46:42.356Z,72.04
2023-05-09T12:47:42.472Z,70.71
2023-05-09T12:48:42.519Z,69.78
2023-05-09T12:49:42.601Z,71.86
2023-05-09T12:50:42.675Z,74.07
2023-05-09T12:51:42.774Z,77.25
2023-05-09T12:52:58.530Z,79.36